sensor_id;sensor_type;location;lat;lon;timestamp;temperature;humidity
10441;DHT22;5268;49.346;9.522;2023-07-13T03:09:54;18.10;92.30
10441;DHT22;5268;49.346;9.522;2023-07-13T03:14:57;18.00;91.90
10441;DHT22;5268;49.346;9.522;2023-07-13T03:19:59;17.90;91.90
10441;DHT22;5268;49.346;9.522;2023-07-13T03:25:03;17.80;92.60
10441;DHT22;5268;49.346;9.522;2023-07-13T03:30:07;17.80;92.00
10441;DHT22;5268;49.346;9.522;2023-07-13T03:35:09;17.80;95.70
10441;DHT22;5268;49.346;9.522;2023-07-13T03:40:13;17.70;92.50
10441;DHT22;5268;49.346;9.522;2023-07-13T03:45:15;17.60;92.40
10441;DHT22;5268;49.346;9.522;2023-07-13T03:50:17;17.50;93.10
10441;DHT22;5268;49.346;9.522;2023-07-13T03:55:20;17.50;92.00
10441;DHT22;5268;49.346;9.522;2023-07-13T04:00:22;17.50;92.00
10441;DHT22;5268;49.346;9.522;2023-07-13T04:05:25;17.50;92.30
10441;DHT22;5268;49.346;9.522;2023-07-13T04:10:28;17.40;92.10
10441;DHT22;5268;49.346;9.522;2023-07-13T04:15:31;17.30;92.30
10441;DHT22;5268;49.346;9.522;2023-07-13T04:20:33;17.30;92.50
10441;DHT22;5268;49.346;9.522;2023-07-13T04:25:36;17.30;92.40
10441;DHT22;5268;49.346;9.522;2023-07-13T04:30:38;17.30;92.50
10441;DHT22;5268;49.346;9.522;2023-07-13T04:35:40;17.30;92.60
10441;DHT22;5268;49.346;9.522;2023-07-13T04:40:45;17.30;92.70
10441;DHT22;5268;49.346;9.522;2023-07-13T04:45:47;17.30;92.90
10441;DHT22;5268;49.346;9.522;2023-07-13T04:50:54;17.40;92.70
10441;DHT22;5268;49.346;9.522;2023-07-13T04:55:58;17.40;93.00
10441;DHT22;5268;49.346;9.522;2023-07-13T05:01:01;17.40;92.50
10441;DHT22;5268;49.346;9.522;2023-07-13T05:06:04;17.40;93.30
10441;DHT22;5268;49.346;9.522;2023-07-13T05:11:08;17.40;93.00
10441;DHT22;5268;49.346;9.522;2023-07-13T05:16:10;17.40;94.20
10441;DHT22;5268;49.346;9.522;2023-07-13T05:21:12;17.50;93.40
10441;DHT22;5268;49.346;9.522;2023-07-13T05:26:15;17.60;93.40
10441;DHT22;5268;49.346;9.522;2023-07-13T05:31:17;17.70;93.00
10441;DHT22;5268;49.346;9.522;2023-07-13T05:36:20;17.90;93.30
10441;DHT22;5268;49.346;9.522;2023-07-13T05:41:24;18.10;93.80
10441;DHT22;5268;49.346;9.522;2023-07-13T05:46:25;18.20;93.40
10441;DHT22;5268;49.346;9.522;2023-07-13T05:51:27;18.40;96.00
10441;DHT22;5268;49.346;9.522;2023-07-13T05:56:31;18.50;94.70
10441;DHT22;5268;49.346;9.522;2023-07-13T06:01:33;18.50;94.90
10441;DHT22;5268;49.346;9.522;2023-07-13T06:06:35;18.60;95.10
10441;DHT22;5268;49.346;9.522;2023-07-13T06:11:38;18.80;95.60
10441;DHT22;5268;49.346;9.522;2023-07-13T06:16:40;19.00;95.00
10441;DHT22;5268;49.346;9.522;2023-07-13T06:21:42;19.30;94.80
10441;DHT22;5268;49.346;9.522;2023-07-13T06:26:46;19.50;94.70
10441;DHT22;5268;49.346;9.522;2023-07-13T06:31:48;19.60;94.70
10441;DHT22;5268;49.346;9.522;2023-07-13T06:36:49;19.60;94.30
10441;DHT22;5268;49.346;9.522;2023-07-13T06:41:53;19.60;94.70
10441;DHT22;5268;49.346;9.522;2023-07-13T06:46:55;19.70;94.40
10441;DHT22;5268;49.346;9.522;2023-07-13T06:51:57;19.80;94.60
10441;DHT22;5268;49.346;9.522;2023-07-13T06:57:00;20.00;94.90
10441;DHT22;5268;49.346;9.522;2023-07-13T07:02:02;20.20;95.10
10441;DHT22;5268;49.346;9.522;2023-07-13T07:07:04;20.50;95.10
10441;DHT22;5268;49.346;9.522;2023-07-13T07:12:08;20.80;95.10
10441;DHT22;5268;49.346;9.522;2023-07-13T07:17:10;21.20;94.90
10441;DHT22;5268;49.346;9.522;2023-07-13T07:22:13;21.60;95.10
10441;DHT22;5268;49.346;9.522;2023-07-13T07:27:16;21.80;94.70
10441;DHT22;5268;49.346;9.522;2023-07-13T07:32:19;22.00;94.60
10441;DHT22;5268;49.346;9.522;2023-07-13T07:37:21;22.40;94.60
10441;DHT22;5268;49.346;9.522;2023-07-13T07:42:24;22.60;93.40
10441;DHT22;5268;49.346;9.522;2023-07-13T07:47:26;22.70;91.60
10441;DHT22;5268;49.346;9.522;2023-07-13T07:52:28;22.70;91.90
10441;DHT22;5268;49.346;9.522;2023-07-13T07:57:32;23.00;93.20
10441;DHT22;5268;49.346;9.522;2023-07-13T08:02:34;23.30;93.40
10441;DHT22;5268;49.346;9.522;2023-07-13T08:07:37;23.70;93.50
10441;DHT22;5268;49.346;9.522;2023-07-13T08:12:41;24.20;93.10
10441;DHT22;5268;49.346;9.522;2023-07-13T08:17:43;24.10;87.50
10441;DHT22;5268;49.346;9.522;2023-07-13T08:22:45;24.20;90.40
10441;DHT22;5268;49.346;9.522;2023-07-13T08:27:48;24.30;91.60
10441;DHT22;5268;49.346;9.522;2023-07-13T08:32:50;24.60;91.60
10441;DHT22;5268;49.346;9.522;2023-07-13T08:37:52;25.10;92.20
10441;DHT22;5268;49.346;9.522;2023-07-13T08:42:58;25.50;92.20
10441;DHT22;5268;49.346;9.522;2023-07-13T08:48:03;25.80;90.20
10441;DHT22;5268;49.346;9.522;2023-07-13T08:53:07;26.10;91.50
10441;DHT22;5268;49.346;9.522;2023-07-13T08:58:15;26.40;91.20
10441;DHT22;5268;49.346;9.522;2023-07-13T09:03:21;26.70;90.50
10441;DHT22;5268;49.346;9.522;2023-07-13T09:08:38;27.00;90.40
10441;DHT22;5268;49.346;9.522;2023-07-13T09:13:51;27.20;90.30
10441;DHT22;5268;49.346;9.522;2023-07-13T09:18:59;27.40;88.90
10441;DHT22;5268;49.346;9.522;2023-07-13T09:24:28;27.50;89.50
10441;DHT22;5268;49.346;9.522;2023-07-13T09:29:34;27.80;89.20
10441;DHT22;5268;49.346;9.522;2023-07-13T09:34:36;28.00;87.90
10441;DHT22;5268;49.346;9.522;2023-07-13T09:39:39;28.10;87.10
10441;DHT22;5268;49.346;9.522;2023-07-13T09:44:52;28.20;87.50
10441;DHT22;5268;49.346;9.522;2023-07-13T09:49:55;28.30;85.70
10441;DHT22;5268;49.346;9.522;2023-07-13T09:54:58;28.20;82.60
10441;DHT22;5268;49.346;9.522;2023-07-13T10:00:02;28.00;83.10
10441;DHT22;5268;49.346;9.522;2023-07-13T10:05:07;27.70;80.00
10441;DHT22;5268;49.346;9.522;2023-07-13T10:10:15;27.40;80.70
10441;DHT22;5268;49.346;9.522;2023-07-13T10:15:22;27.20;81.40
10441;DHT22;5268;49.346;9.522;2023-07-13T10:20:26;27.00;81.20
10441;DHT22;5268;49.346;9.522;2023-07-13T10:25:32;27.20;81.70
10441;DHT22;5268;49.346;9.522;2023-07-13T10:30:39;27.30;76.80
10441;DHT22;5268;49.346;9.522;2023-07-13T10:35:43;27.40;82.30
10441;DHT22;5268;49.346;9.522;2023-07-13T10:40:54;27.70;82.30
10441;DHT22;5268;49.346;9.522;2023-07-13T10:46:00;27.90;78.50
10441;DHT22;5268;49.346;9.522;2023-07-13T10:51:05;28.10;77.20
10441;DHT22;5268;49.346;9.522;2023-07-13T10:56:22;28.10;74.30
10441;DHT22;5268;49.346;9.522;2023-07-13T11:01:39;28.20;78.30
10441;DHT22;5268;49.346;9.522;2023-07-13T11:06:42;28.20;76.90
10441;DHT22;5268;49.346;9.522;2023-07-13T11:11:46;28.40;78.10
10441;DHT22;5268;49.346;9.522;2023-07-13T11:16:49;28.50;77.90
10441;DHT22;5268;49.346;9.522;2023-07-13T11:22:16;28.40;77.00
10441;DHT22;5268;49.346;9.522;2023-07-13T11:27:30;28.50;72.80
10441;DHT22;5268;49.346;9.522;2023-07-13T11:32:38;28.70;77.50
10441;DHT22;5268;49.346;9.522;2023-07-13T11:37:40;28.90;76.50
10441;DHT22;5268;49.346;9.522;2023-07-13T11:42:42;29.10;78.50
10441;DHT22;5268;49.346;9.522;2023-07-13T11:47:46;29.30;75.10
10441;DHT22;5268;49.346;9.522;2023-07-13T11:52:48;29.20;77.00
10441;DHT22;5268;49.346;9.522;2023-07-13T11:57:56;29.30;75.70
10441;DHT22;5268;49.346;9.522;2023-07-13T12:03:02;29.10;74.90
10441;DHT22;5268;49.346;9.522;2023-07-13T12:08:09;28.90;75.30
10441;DHT22;5268;49.346;9.522;2023-07-13T12:13:11;28.60;74.00
10441;DHT22;5268;49.346;9.522;2023-07-13T12:18:18;28.40;74.30
10441;DHT22;5268;49.346;9.522;2023-07-13T12:23:23;28.20;74.10
10441;DHT22;5268;49.346;9.522;2023-07-13T12:28:32;28.20;75.50
10441;DHT22;5268;49.346;9.522;2023-07-13T12:33:39;28.40;75.90
10441;DHT22;5268;49.346;9.522;2023-07-13T12:38:45;28.60;76.40
10441;DHT22;5268;49.346;9.522;2023-07-13T12:43:47;28.70;75.30
10441;DHT22;5268;49.346;9.522;2023-07-13T12:48:52;28.80;74.40
10441;DHT22;5268;49.346;9.522;2023-07-13T12:53:58;28.80;71.80
10441;DHT22;5268;49.346;9.522;2023-07-13T12:59:10;28.40;70.60
10441;DHT22;5268;49.346;9.522;2023-07-13T13:04:14;28.20;70.90
10441;DHT22;5268;49.346;9.522;2023-07-13T13:09:17;28.00;73.00
10441;DHT22;5268;49.346;9.522;2023-07-13T13:14:20;28.00;74.90
10441;DHT22;5268;49.346;9.522;2023-07-13T13:19:25;28.00;74.00
10441;DHT22;5268;49.346;9.522;2023-07-13T13:24:28;28.10;74.40
10441;DHT22;5268;49.346;9.522;2023-07-13T13:29:31;28.00;71.50
10441;DHT22;5268;49.346;9.522;2023-07-13T13:34:36;27.90;74.10
10441;DHT22;5268;49.346;9.522;2023-07-13T13:39:38;28.00;74.20
10441;DHT22;5268;49.346;9.522;2023-07-13T13:44:40;28.20;72.10
10441;DHT22;5268;49.346;9.522;2023-07-13T13:49:44;28.30;73.70
10441;DHT22;5268;49.346;9.522;2023-07-13T13:54:47;28.40;71.40
10441;DHT22;5268;49.346;9.522;2023-07-13T13:59:49;28.30;72.00
10441;DHT22;5268;49.346;9.522;2023-07-13T14:04:55;28.10;72.40
10441;DHT22;5268;49.346;9.522;2023-07-13T14:09:59;28.20;71.80
10441;DHT22;5268;49.346;9.522;2023-07-13T14:15:01;28.30;72.70
10441;DHT22;5268;49.346;9.522;2023-07-13T14:20:10;28.40;72.80
10441;DHT22;5268;49.346;9.522;2023-07-13T14:25:15;28.20;71.10
10441;DHT22;5268;49.346;9.522;2023-07-13T14:30:19;28.20;72.10
10441;DHT22;5268;49.346;9.522;2023-07-13T14:35:23;28.10;70.40
10441;DHT22;5268;49.346;9.522;2023-07-13T14:40:28;28.00;71.30
10441;DHT22;5268;49.346;9.522;2023-07-13T14:45:31;27.90;72.10
10441;DHT22;5268;49.346;9.522;2023-07-13T14:50:34;27.90;71.40
10441;DHT22;5268;49.346;9.522;2023-07-13T14:55:36;27.90;70.70
10441;DHT22;5268;49.346;9.522;2023-07-13T15:00:38;27.90;72.20
10441;DHT22;5268;49.346;9.522;2023-07-13T15:05:42;27.90;72.40
10441;DHT22;5268;49.346;9.522;2023-07-13T15:10:44;28.00;71.80
10441;DHT22;5268;49.346;9.522;2023-07-13T15:15:49;28.00;70.70
10441;DHT22;5268;49.346;9.522;2023-07-13T15:20:53;27.80;70.90
10441;DHT22;5268;49.346;9.522;2023-07-13T15:25:56;27.70;70.70
10441;DHT22;5268;49.346;9.522;2023-07-13T15:30:58;27.50;71.20
10441;DHT22;5268;49.346;9.522;2023-07-13T15:36:02;27.50;72.10
10441;DHT22;5268;49.346;9.522;2023-07-13T15:41:18;27.60;71.00
10441;DHT22;5268;49.346;9.522;2023-07-13T15:46:23;27.70;70.10
10441;DHT22;5268;49.346;9.522;2023-07-13T15:51:28;27.60;71.30
10441;DHT22;5268;49.346;9.522;2023-07-13T15:56:35;27.40;69.00
10441;DHT22;5268;49.346;9.522;2023-07-13T16:01:37;27.20;68.50
10441;DHT22;5268;49.346;9.522;2023-07-13T16:06:43;27.10;71.50
10441;DHT22;5268;49.346;9.522;2023-07-13T16:11:44;27.00;71.20
10441;DHT22;5268;49.346;9.522;2023-07-13T16:16:47;27.00;70.40
10441;DHT22;5268;49.346;9.522;2023-07-13T16:21:50;27.10;71.30
10441;DHT22;5268;49.346;9.522;2023-07-13T16:26:53;27.10;69.80
10441;DHT22;5268;49.346;9.522;2023-07-13T16:32:03;27.00;70.40
10441;DHT22;5268;49.346;9.522;2023-07-13T16:37:13;27.00;71.30
10441;DHT22;5268;49.346;9.522;2023-07-13T16:42:16;27.00;70.50
10441;DHT22;5268;49.346;9.522;2023-07-13T16:47:18;27.00;70.30
10441;DHT22;5268;49.346;9.522;2023-07-13T16:52:21;26.90;70.90
10441;DHT22;5268;49.346;9.522;2023-07-13T16:57:26;26.90;69.20
10441;DHT22;5268;49.346;9.522;2023-07-13T17:02:33;26.80;70.00
10441;DHT22;5268;49.346;9.522;2023-07-13T17:07:38;26.70;69.90
10441;DHT22;5268;49.346;9.522;2023-07-13T17:12:40;26.60;70.80
10441;DHT22;5268;49.346;9.522;2023-07-13T17:17:42;26.60;69.90
10441;DHT22;5268;49.346;9.522;2023-07-13T17:22:45;26.50;70.30
10441;DHT22;5268;49.346;9.522;2023-07-13T17:27:48;26.50;71.10
10441;DHT22;5268;49.346;9.522;2023-07-13T17:32:50;26.40;69.80
10441;DHT22;5268;49.346;9.522;2023-07-13T17:37:56;26.30;69.90
10441;DHT22;5268;49.346;9.522;2023-07-13T17:42:59;26.20;69.20
10441;DHT22;5268;49.346;9.522;2023-07-13T17:48:01;26.10;70.00
10441;DHT22;5268;49.346;9.522;2023-07-13T17:53:14;26.10;69.50
10441;DHT22;5268;49.346;9.522;2023-07-13T17:58:16;25.90;70.00
10441;DHT22;5268;49.346;9.522;2023-07-13T18:03:22;25.80;70.10
10441;DHT22;5268;49.346;9.522;2023-07-13T18:08:30;25.60;70.40
10441;DHT22;5268;49.346;9.522;2023-07-13T18:13:32;25.50;71.00
10441;DHT22;5268;49.346;9.522;2023-07-13T18:18:40;25.50;71.50
10441;DHT22;5268;49.346;9.522;2023-07-13T18:23:44;25.50;71.20
10441;DHT22;5268;49.346;9.522;2023-07-13T18:28:47;25.40;71.60
10441;DHT22;5268;49.346;9.522;2023-07-13T18:33:51;25.30;72.00
10441;DHT22;5268;49.346;9.522;2023-07-13T18:38:56;25.30;72.20
10441;DHT22;5268;49.346;9.522;2023-07-13T18:43:59;25.20;72.30
10441;DHT22;5268;49.346;9.522;2023-07-13T18:49:01;25.10;72.40
10441;DHT22;5268;49.346;9.522;2023-07-13T18:54:11;25.00;72.60
10441;DHT22;5268;49.346;9.522;2023-07-13T18:59:13;24.90;72.60
10441;DHT22;5268;49.346;9.522;2023-07-13T19:04:28;24.80;72.70
10441;DHT22;5268;49.346;9.522;2023-07-13T19:09:32;24.60;72.70
10441;DHT22;5268;49.346;9.522;2023-07-13T19:14:34;24.50;72.90
10441;DHT22;5268;49.346;9.522;2023-07-13T19:19:36;24.40;72.90
10441;DHT22;5268;49.346;9.522;2023-07-13T19:24:39;24.30;73.00
10441;DHT22;5268;49.346;9.522;2023-07-13T19:29:41;24.10;73.30
10441;DHT22;5268;49.346;9.522;2023-07-13T19:34:44;23.90;75.40
10441;DHT22;5268;49.346;9.522;2023-07-13T19:39:47;23.70;74.30
10441;DHT22;5268;49.346;9.522;2023-07-13T19:44:55;23.40;75.80
10441;DHT22;5268;49.346;9.522;2023-07-13T19:49:57;23.20;76.20
10441;DHT22;5268;49.346;9.522;2023-07-13T19:55:04;23.00;76.00
10441;DHT22;5268;49.346;9.522;2023-07-13T20:00:14;22.90;76.20
10441;DHT22;5268;49.346;9.522;2023-07-13T20:05:19;22.80;76.50
10441;DHT22;5268;49.346;9.522;2023-07-13T20:10:25;22.60;77.20
10441;DHT22;5268;49.346;9.522;2023-07-13T20:15:31;22.50;76.40
10441;DHT22;5268;49.346;9.522;2023-07-13T20:20:35;22.40;76.70
10441;DHT22;5268;49.346;9.522;2023-07-13T20:25:41;22.30;77.50
10441;DHT22;5268;49.346;9.522;2023-07-13T20:30:45;22.20;77.10
10441;DHT22;5268;49.346;9.522;2023-07-13T20:35:49;22.10;77.30
10441;DHT22;5268;49.346;9.522;2023-07-13T20:40:52;21.90;77.30
10441;DHT22;5268;49.346;9.522;2023-07-13T20:45:57;21.80;78.20
10441;DHT22;5268;49.346;9.522;2023-07-13T20:51:00;21.60;77.90
10441;DHT22;5268;49.346;9.522;2023-07-13T20:56:10;21.50;78.00
10441;DHT22;5268;49.346;9.522;2023-07-13T21:01:15;21.30;78.60
10441;DHT22;5268;49.346;9.522;2023-07-13T21:06:18;21.20;78.30
10441;DHT22;5268;49.346;9.522;2023-07-13T21:11:22;21.10;78.30
10441;DHT22;5268;49.346;9.522;2023-07-13T21:16:27;20.90;79.80
10441;DHT22;5268;49.346;9.522;2023-07-13T21:21:30;20.80;79.00
10441;DHT22;5268;49.346;9.522;2023-07-13T21:26:34;20.70;80.60
10441;DHT22;5268;49.346;9.522;2023-07-13T21:31:36;20.70;80.80
10441;DHT22;5268;49.346;9.522;2023-07-13T21:36:38;20.60;79.50
10441;DHT22;5268;49.346;9.522;2023-07-13T21:41:42;20.50;80.30
10441;DHT22;5268;49.346;9.522;2023-07-13T21:46:44;20.40;80.30
10441;DHT22;5268;49.346;9.522;2023-07-13T21:51:46;20.30;80.00
